| time (UTC) | temp C | wind direction | speed KPH | gust KPH | rain 1hr cm | rain 24hr cm | rain mn cm | humidity % | barometer mb |
| 20260505100349 | 16 | 257 | 0.0 | 6.4 | 0.00 | 0.00 | 0.00 | 71 | 1010.2 |
| 20260505094821 | 16 | 143 | 1.6 | 4.8 | 0.00 | 0.00 | 0.00 | 71 | 1010.0 |
| 20260505093321 | 16 | 243 | 1.6 | 8.0 | 0.00 | 0.00 | 0.00 | 70 | 1010.0 |
| 20260505091835 | 16 | 224 | 3.2 | 6.4 | 0.00 | 0.00 | 0.00 | 70 | 1009.8 |
| 20260505090333 | 17 | 208 | 3.2 | 11.3 | 0.00 | 0.00 | 0.00 | 70 | 1009.7 |
| 20260505084826 | 17 | 148 | 1.6 | 8.0 | 0.00 | 0.00 | 0.00 | 71 | 1009.9 |
| 20260505083323 | 17 | 200 | 0.0 | 9.7 | 0.00 | 0.00 | 0.00 | 71 | 1009.9 |
| 20260505081838 | 17 | 195 | 1.6 | 11.3 | 0.00 | 0.00 | 0.00 | 71 | 1009.9 |
| 20260505080331 | 17 | 239 | 1.6 | 4.8 | 0.00 | 0.00 | 0.00 | 71 | 1010.0 |
| 20260505074827 | 17 | 74 | 1.6 | 8.0 | 0.00 | 0.00 | 0.00 | 70 | 1009.7 |
| 20260505073340 | 17 | 90 | 3.2 | 6.4 | 0.00 | 0.00 | 0.00 | 70 | 1009.6 |
| 20260505071836 | 17 | 233 | 0.0 | 3.2 | 0.00 | 0.00 | 0.00 | 69 | 1009.6 |
| 20260505070332 | 17 | 243 | 4.8 | 9.7 | 0.00 | 0.00 | 0.00 | 69 | 1009.5 |
| 20260505064829 | 17 | 276 | 1.6 | 8.0 | 0.00 | 0.00 | 0.00 | 68 | 1009.5 |
| 20260505063322 | 17 | 223 | 1.6 | 8.0 | 0.00 | 0.00 | 0.00 | 68 | 1009.5 |
| 20260505061836 | 17 | 200 | 0.0 | 8.0 | 0.00 | 0.00 | 0.00 | 68 | 1009.6 |
| 20260505060332 | 17 | 256 | 3.2 | 6.4 | 0.00 | 0.00 | 0.00 | 68 | 1009.7 |
| 20260505054826 | 17 | 319 | 3.2 | 6.4 | 0.00 | 0.00 | 0.00 | 68 | 1009.6 |
| 20260505053323 | 17 | 212 | 3.2 | 6.4 | 0.00 | 0.00 | 0.00 | 68 | 1009.6 |
| 20260505051838 | 18 | 117 | 3.2 | 8.0 | 0.00 | 0.00 | 0.00 | 67 | 1009.7 |
| 20260505050335 | 18 | 40 | 1.6 | 8.0 | 0.00 | 0.00 | 0.00 | 67 | 1009.6 |
| 20260505040332 | 18 | 293 | 1.6 | 6.4 | 0.00 | 0.00 | 0.00 | 67 | 1009.8 |
| 20260505034828 | 18 | 356 | 3.2 | 9.7 | 0.00 | 0.00 | 0.00 | 67 | 1009.7 |
| 20260505033341 | 18 | 177 | 4.8 | 8.0 | 0.00 | 0.00 | 0.00 | 67 | 1009.7 |
| 20260505031838 | 19 | 210 | 1.6 | 14.5 | 0.00 | 0.00 | 0.00 | 67 | 1009.6 |
| 20260505030333 | 19 | 120 | 1.6 | 8.0 | 0.00 | 0.00 | 0.00 | 67 | 1009.5 |
| 20260505024830 | 19 | 347 | 3.2 | 8.0 | 0.00 | 0.00 | 0.00 | 67 | 1009.5 |
| 20260505023322 | 20 | 18 | 1.6 | 8.0 | 0.00 | 0.00 | 0.00 | 67 | 1009.3 |
| 20260505021840 | 20 | 39 | 3.2 | 6.4 | 0.00 | 0.00 | 0.00 | 67 | 1009.2 |
| 20260505020332 | 20 | 11 | 3.2 | 8.0 | 0.00 | 0.00 | 0.00 | 67 | 1009.1 |
| 20260505014827 | 20 | 198 | 0.0 | 8.0 | 0.00 | 0.00 | 0.00 | 67 | 1009.1 |
| 20260505013324 | 20 | 135 | 0.0 | 6.4 | 0.00 | 0.00 | 0.00 | 66 | 1009.0 |
| 20260505011858 | 20 | 313 | 1.6 | 4.8 | 0.00 | 0.00 | 0.00 | 64 | 1008.9 |
| 20260505010334 | 21 | 198 | 0.0 | 3.2 | 0.00 | 0.00 | 0.00 | 59 | 1008.7 |
| 20260505004828 | 21 | 168 | 0.0 | 0.0 | 0.00 | 0.00 | 0.00 | 49 | 1008.4 |
| 20260505003325 | 21 | 24 | 0.0 | 1.6 | 0.00 | 0.00 | 0.00 | 46 | 1008.2 |
| 20260505001841 | 22 | 25 | 0.0 | 1.6 | 0.00 | 0.00 | 0.00 | 46 | 1008.1 |
| 20260505000334 | 22 | 22 | 0.0 | 3.2 | 0.00 | 0.00 | 0.00 | 45 | 1007.9 |
| 20260504234835 | 23 | 23 | 0.0 | 1.6 | 0.00 | 0.00 | 0.00 | 44 | 1007.8 |
| 20260504233331 | 23 | 8 | 0.0 | 1.6 | 0.00 | 0.00 | 0.00 | 43 | 1007.4 |
| 20260504231829 | 23 | 32 | 0.0 | 1.6 | 0.00 | 0.00 | 0.00 | 43 | 1007.4 |
| 20260504230341 | 24 | 112 | 0.0 | 3.2 | 0.00 | 0.00 | 0.00 | 42 | 1007.5 |
| 20260504224839 | 24 | 17 | 0.0 | 4.8 | 0.00 | 0.00 | 0.00 | 41 | 1007.5 |
| 20260504223332 | 25 | 70 | 0.0 | 6.4 | 0.00 | 0.00 | 0.00 | 40 | 1007.5 |
| 20260504221832 | 25 | 18 | 3.2 | 8.0 | 0.00 | 0.00 | 0.00 | 39 | 1007.5 |
| 20260504220325 | 25 | 162 | 1.6 | 3.2 | 0.00 | 0.00 | 0.00 | 38 | 1007.5 |
| 20260504214821 | 25 | 87 | 1.6 | 6.4 | 0.00 | 0.00 | 0.00 | 38 | 1007.7 |
| 20260504213337 | 25 | 110 | 1.6 | 6.4 | 0.00 | 0.00 | 0.00 | 37 | 1007.8 |
| 20260504211853 | 25 | 347 | 3.2 | 8.0 | 0.00 | 0.00 | 0.00 | 36 | 1007.8 |
| 20260504210330 | 26 | 250 | 3.2 | 8.0 | 0.00 | 0.00 | 0.00 | 36 | 1007.7 |
| 20260504204903 | 26 | 185 | 1.6 | 8.0 | 0.00 | 0.00 | 0.00 | 35 | 1007.7 |
| 20260504203355 | 26 | 337 | 1.6 | 8.0 | 0.00 | 0.00 | 0.00 | 35 | 1007.9 |
| 20260504201830 | 27 | 129 | 0.0 | 6.4 | 0.00 | 0.00 | 0.00 | 34 | 1007.9 |
| 20260504200322 | 27 | 153 | 0.0 | 4.8 | 0.00 | 0.00 | 0.00 | 36 | 1007.9 |
| 20260504194841 | 26 | 105 | 1.6 | 16.1 | 0.00 | 0.00 | 0.00 | 37 | 1008.2 |
| 20260504193335 | 26 | 63 | 0.0 | 6.4 | 0.00 | 0.00 | 0.00 | 38 | 1008.5 |
| 20260504191833 | 26 | 21 | 1.6 | 8.0 | 0.00 | 0.00 | 0.00 | 39 | 1008.6 |
| 20260504190346 | 26 | 152 | 1.6 | 8.0 | 0.00 | 0.00 | 0.00 | 40 | 1008.9 |
| 20260504184837 | 25 | 328 | 0.0 | 6.4 | 0.00 | 0.00 | 0.00 | 42 | 1009.2 |
| 20260504183336 | 25 | 214 | 1.6 | 8.0 | 0.00 | 0.00 | 0.00 | 39 | 1009.5 |
| 20260504181829 | 25 | 352 | 1.6 | 8.0 | 0.00 | 0.00 | 0.00 | 40 | 1009.5 |
| 20260504180324 | 25 | 274 | 3.2 | 11.3 | 0.00 | 0.00 | 0.00 | 41 | 1009.6 |
| 20260504174838 | 25 | 204 | 1.6 | 11.3 | 0.00 | 0.00 | 0.00 | 42 | 1009.6 |
| 20260504173335 | 25 | 1 | 3.2 | 16.1 | 0.00 | 0.00 | 0.00 | 43 | 1009.8 |
| 20260504171828 | 25 | 48 | 4.8 | 6.4 | 0.00 | 0.00 | 0.00 | 42 | 1010.0 |
| 20260504170342 | 24 | 290 | 3.2 | 8.0 | 0.00 | 0.00 | 0.00 | 44 | 1010.0 |
| 20260504160322 | 22 | 348 | 4.8 | 8.0 | 0.00 | 0.00 | 0.00 | 50 | 1010.9 |
| 20260504150327 | 20 | 347 | 1.6 | 9.7 | 0.00 | 0.00 | 0.00 | 55 | 1011.2 |
| 20260504140331 | 17 | 131 | 0.0 | 6.4 | 0.00 | 0.00 | 0.00 | 62 | 1011.6 |
| 20260504130329 | 15 | 44 | 1.6 | 9.7 | 0.00 | 0.00 | 0.00 | 70 | 1011.7 |
| 20260504110327 | 12 | 107 | 0.0 | 0.0 | 0.00 | 0.00 | 0.00 | 74 | 1012.1 |